Time;durP1;ratioP1;P1;durP2;ratioP2;P2;SDS_P1;SDS_P2;PMS_P1;PMS_P2;Temp;Humidity;BMP_temperature;BMP_pressure;BME280_temperature;BME280_humidity;BME280_pressure;Samples;Min_cycle;Max_cycle;Signal;HPM_P1;HPM_P2
2021/09/11 00:01:05;;;;;;;17.10;15.77;;;;;;;;;;5114100;27;24465;-62
2021/09/11 00:03:30;;;;;;;15.80;14.70;;;;;;;;;;5126591;27;24425;-62
2021/09/11 00:05:55;;;;;;;16.47;15.17;;;;;;;;;;5126046;27;24816;-62
2021/09/11 00:08:20;;;;;;;17.80;16.50;;;;;;;;;;5109533;28;24966;-62
2021/09/11 00:10:45;;;;;;;17.98;16.60;;;;;;;;;;5109653;28;24417;-62
2021/09/11 00:13:10;;;;;;;14.17;13.17;;;;;;;;;;5126996;27;24462;-62
2021/09/11 00:15:36;;;;;;;16.30;15.00;;;;;;;;;;5111409;27;24406;-62
2021/09/11 00:18:03;;;;;;;16.05;14.85;;;;;;;;;;5109614;28;24500;-62
2021/09/11 00:20:29;;;;;;;16.83;15.52;;;;;;;;;;5109619;28;24453;-62
2021/09/11 00:22:54;;;;;;;14.80;13.70;;;;;;;;;;5109875;27;24490;-63
2021/09/11 00:25:19;;;;;;;14.27;13.25;;;;;;;;;;5109464;28;24410;-62
2021/09/11 00:27:44;;;;;;;17.10;15.90;;;;;;;;;;5109514;28;24959;-62
2021/09/11 00:30:10;;;;;;;18.10;16.80;;;;;;;;;;5109062;28;24479;-62
2021/09/11 00:32:35;;;;;;;16.00;14.80;;;;;;;;;;5111941;27;24417;-65
2021/09/11 00:35:01;;;;;;;14.87;13.77;;;;;;;;;;5109424;28;24768;-63
2021/09/11 00:37:26;;;;;;;17.20;15.90;;;;;;;;;;5108445;28;24516;-62
2021/09/11 00:39:51;;;;;;;15.97;14.77;;;;;;;;;;5108397;28;24428;-62
2021/09/11 00:42:16;;;;;;;14.07;13.07;;;;;;;;;;5107606;28;24798;-62
2021/09/11 00:44:41;;;;;;;14.20;13.20;;;;;;;;;;5110364;27;24435;-61
2021/09/11 00:47:07;;;;;;;14.37;13.37;;;;;;;;;;5109291;28;24541;-62
2021/09/11 00:49:32;;;;;;;13.80;12.70;;;;;;;;;;5108470;28;24413;-62
2021/09/11 00:51:57;;;;;;;13.97;12.97;;;;;;;;;;5109266;28;24416;-62
2021/09/11 00:54:22;;;;;;;14.47;13.37;;;;;;;;;;5110390;27;24966;-61
2021/09/11 00:56:48;;;;;;;14.10;13.10;;;;;;;;;;5109439;28;24456;-62
2021/09/11 00:59:14;;;;;;;14.60;13.60;;;;;;;;;;5108472;28;24474;-62
2021/09/11 01:01:39;;;;;;;15.40;14.20;;;;;;;;;;5109788;28;24414;-62
2021/09/11 01:04:04;;;;;;;15.60;14.50;;;;;;;;;;5109839;27;25153;-62
2021/09/11 01:06:29;;;;;;;17.40;16.00;;;;;;;;;;5108356;28;24425;-61
2021/09/11 01:08:54;;;;;;;15.73;14.53;;;;;;;;;;5108352;28;24413;-62
2021/09/11 01:11:20;;;;;;;15.40;14.30;;;;;;;;;;5108937;28;24394;-61
2021/09/11 01:13:45;;;;;;;16.60;15.40;;;;;;;;;;5091313;28;24962;-61
2021/09/11 01:16:10;;;;;;;18.48;17.08;;;;;;;;;;5110485;27;24445;-62
2021/09/11 01:18:36;;;;;;;16.47;15.27;;;;;;;;;;5090223;28;24741;-61
2021/09/11 01:21:01;;;;;;;18.70;17.30;;;;;;;;;;5108882;28;24583;-62
2021/09/11 01:23:27;;;;;;;17.83;16.53;;;;;;;;;;5108003;28;24413;-61
2021/09/11 01:25:52;;;;;;;17.80;16.40;;;;;;;;;;5115458;27;24950;-61
2021/09/11 01:28:17;;;;;;;16.70;15.47;;;;;;;;;;5112044;27;24406;-61
2021/09/11 01:30:42;;;;;;;17.33;15.93;;;;;;;;;;5108715;28;24437;-61
2021/09/11 01:33:08;;;;;;;18.98;17.58;;;;;;;;;;5108222;28;24421;-62
2021/09/11 01:35:33;;;;;;;17.85;16.48;;;;;;;;;;5108122;28;24413;-61
2021/09/11 01:37:58;;;;;;;18.08;16.67;;;;;;;;;;5108959;27;24479;-62
2021/09/11 01:40:23;;;;;;;19.53;18.13;;;;;;;;;;5107671;28;24986;-62
2021/09/11 01:42:49;;;;;;;15.90;14.80;;;;;;;;;;5107887;28;24485;-62
2021/09/11 01:45:15;;;;;;;16.50;15.30;;;;;;;;;;5107853;28;24439;-61
2021/09/11 01:47:41;;;;;;;18.90;17.50;;;;;;;;;;5114418;27;24433;-61
2021/09/11 01:50:07;;;;;;;16.23;15.03;;;;;;;;;;5106105;28;24459;-61
2021/09/11 01:52:32;;;;;;;16.23;15.02;;;;;;;;;;5107311;28;25121;-62
2021/09/11 01:54:57;;;;;;;17.00;15.80;;;;;;;;;;5107488;28;24508;-61
2021/09/11 01:57:22;;;;;;;16.45;15.25;;;;;;;;;;5109060;27;24409;-61
2021/09/11 01:59:48;;;;;;;15.67;14.57;;;;;;;;;;5107584;28;24410;-62
2021/09/11 02:02:13;;;;;;;16.80;15.60;;;;;;;;;;5107378;28;24413;-62
2021/09/11 02:04:38;;;;;;;15.90;14.80;;;;;;;;;;5107277;28;24405;-62
2021/09/11 02:07:04;;;;;;;16.97;15.67;;;;;;;;;;5107757;28;24525;-62
2021/09/11 02:09:30;;;;;;;16.35;15.13;;;;;;;;;;5108599;27;24753;-62
2021/09/11 02:11:55;;;;;;;16.30;15.10;;;;;;;;;;5106327;28;25243;-62
2021/09/11 02:14:20;;;;;;;16.37;15.17;;;;;;;;;;5107137;28;24455;-62
2021/09/11 02:16:45;;;;;;;16.60;15.40;;;;;;;;;;5106934;28;24414;-62
2021/09/11 02:19:11;;;;;;;16.30;15.10;;;;;;;;;;5106522;27;24421;-62
2021/09/11 02:21:36;;;;;;;17.10;15.90;;;;;;;;;;5106536;28;24413;-63
2021/09/11 02:24:01;;;;;;;15.52;14.43;;;;;;;;;;5107171;28;24496;-63
2021/09/11 02:26:26;;;;;;;17.97;16.67;;;;;;;;;;5107069;28;24418;-63
2021/09/11 02:28:52;;;;;;;16.10;14.95;;;;;;;;;;5107601;28;24412;-63
2021/09/11 02:31:17;;;;;;;17.20;16.00;;;;;;;;;;5106563;28;24509;-62
2021/09/11 02:33:42;;;;;;;16.83;15.53;;;;;;;;;;5106685;28;24881;-62
2021/09/11 02:36:07;;;;;;;14.93;13.83;;;;;;;;;;5107092;28;24417;-63
2021/09/11 02:38:33;;;;;;;14.93;13.83;;;;;;;;;;5107143;28;24501;-63
2021/09/11 02:40:58;;;;;;;16.10;14.90;;;;;;;;;;5109510;28;24436;-62
2021/09/11 02:43:23;;;;;;;15.40;14.30;;;;;;;;;;5106480;28;24413;-62
2021/09/11 02:45:48;;;;;;;15.20;14.20;;;;;;;;;;5114004;27;24429;-61
2021/09/11 02:48:13;;;;;;;14.23;13.23;;;;;;;;;;5109499;27;24447;-62
2021/09/11 02:50:38;;;;;;;16.02;14.82;;;;;;;;;;5106299;28;24444;-62
2021/09/11 02:53:03;;;;;;;15.30;14.20;;;;;;;;;;5107218;28;24421;-62
2021/09/11 02:55:29;;;;;;;14.93;13.82;;;;;;;;;;5106640;28;25103;-61
2021/09/11 02:57:54;;;;;;;14.20;13.20;;;;;;;;;;5107141;28;24463;-62
2021/09/11 03:00:19;;;;;;;15.50;14.40;;;;;;;;;;5108233;27;24510;-62
2021/09/11 03:02:45;;;;;;;13.80;12.80;;;;;;;;;;5119177;27;24410;-61
2021/09/11 03:05:10;;;;;;;16.20;15.00;;;;;;;;;;5110585;28;24488;-62
2021/09/11 03:07:35;;;;;;;15.87;14.67;;;;;;;;;;5110410;28;25038;-61
2021/09/11 03:10:00;;;;;;;16.03;14.93;;;;;;;;;;5111210;28;24418;-62
2021/09/11 03:12:25;;;;;;;15.50;14.40;;;;;;;;;;5111864;27;24441;-62
2021/09/11 03:14:51;;;;;;;15.60;14.50;;;;;;;;;;5110328;28;24417;-62
2021/09/11 03:17:16;;;;;;;13.20;12.30;;;;;;;;;;5111217;28;24844;-62
2021/09/11 03:19:41;;;;;;;14.23;13.23;;;;;;;;;;5110861;28;24464;-62
2021/09/11 03:22:06;;;;;;;13.80;12.80;;;;;;;;;;5111775;27;24420;-63
2021/09/11 03:24:31;;;;;;;16.17;14.82;;;;;;;;;;5110775;27;24451;-63
2021/09/11 03:26:56;;;;;;;14.90;13.90;;;;;;;;;;5119743;27;24437;-63
2021/09/11 03:29:21;;;;;;;14.40;13.30;;;;;;;;;;5110478;28;25044;-62
2021/09/11 03:31:47;;;;;;;16.10;14.80;;;;;;;;;;5110286;28;24452;-62
2021/09/11 03:34:12;;;;;;;15.10;13.90;;;;;;;;;;5111065;27;24432;-62
2021/09/11 03:36:37;;;;;;;15.68;14.50;;;;;;;;;;5110103;28;24521;-62
2021/09/11 03:39:02;;;;;;;15.88;14.68;;;;;;;;;;5110438;28;24428;-62
2021/09/11 03:41:27;;;;;;;15.30;14.00;;;;;;;;;;5110630;28;24409;-62
2021/09/11 03:43:53;;;;;;;15.30;14.20;;;;;;;;;;5106542;28;25112;-61
2021/09/11 03:46:18;;;;;;;15.00;13.90;;;;;;;;;;5110497;28;24901;-61
2021/09/11 03:48:43;;;;;;;15.60;14.30;;;;;;;;;;5110159;28;24868;-61
2021/09/11 03:51:08;;;;;;;16.70;15.40;;;;;;;;;;5110053;28;24433;-62
2021/09/11 03:53:33;;;;;;;15.93;14.73;;;;;;;;;;5110975;27;24406;-62
2021/09/11 03:55:59;;;;;;;15.20;14.10;;;;;;;;;;5110368;28;24406;-62
2021/09/11 03:58:24;;;;;;;17.15;15.85;;;;;;;;;;5109176;28;24402;-65
2021/09/11 04:00:49;;;;;;;16.30;15.10;;;;;;;;;;5110003;28;24417;-64
2021/09/11 04:03:14;;;;;;;16.58;15.27;;;;;;;;;;5109214;28;24474;-64
2021/09/11 04:05:39;;;;;;;16.38;15.18;;;;;;;;;;5107810;28;25033;-64
2021/09/11 04:08:04;;;;;;;18.45;17.05;;;;;;;;;;5109815;28;24469;-65
2021/09/11 04:10:29;;;;;;;16.20;15.00;;;;;;;;;;5109556;28;24417;-65
2021/09/11 04:12:55;;;;;;;16.30;15.00;;;;;;;;;;5109508;28;24424;-65
2021/09/11 04:15:20;;;;;;;14.93;13.83;;;;;;;;;;5118499;27;24778;-65
2021/09/11 04:17:45;;;;;;;16.73;15.43;;;;;;;;;;5121351;27;24433;-64
2021/09/11 04:20:10;;;;;;;16.90;15.60;;;;;;;;;;5109638;28;24460;-65
2021/09/11 04:22:35;;;;;;;17.00;15.80;;;;;;;;;;5109092;28;24474;-65
2021/09/11 04:25:01;;;;;;;17.40;16.10;;;;;;;;;;5116122;27;24425;-65
2021/09/11 04:27:26;;;;;;;18.00;16.70;;;;;;;;;;5109492;28;24440;-65
2021/09/11 04:29:51;;;;;;;18.00;16.60;;;;;;;;;;5109114;28;24815;-64
2021/09/11 04:32:16;;;;;;;18.15;16.75;;;;;;;;;;5109357;28;24409;-65
2021/09/11 04:34:41;;;;;;;17.70;16.40;;;;;;;;;;5109816;28;24446;-65
2021/09/11 04:37:06;;;;;;;16.60;15.35;;;;;;;;;;5112678;27;24414;-65
2021/09/11 04:39:32;;;;;;;17.23;15.88;;;;;;;;;;5109055;28;24472;-64
2021/09/11 04:41:57;;;;;;;16.83;15.53;;;;;;;;;;5109534;28;24449;-65
2021/09/11 04:44:22;;;;;;;16.63;15.43;;;;;;;;;;5109196;28;24413;-65
2021/09/11 04:46:47;;;;;;;15.80;14.70;;;;;;;;;;5112590;27;25018;-64
2021/09/11 04:49:12;;;;;;;16.20;15.00;;;;;;;;;;5108953;28;24409;-65
2021/09/11 04:51:38;;;;;;;15.50;14.33;;;;;;;;;;5108472;28;24425;-65
2021/09/11 04:54:03;;;;;;;16.47;15.27;;;;;;;;;;5109795;28;24398;-65
2021/09/11 04:56:28;;;;;;;16.10;14.90;;;;;;;;;;5108366;27;24825;-64
2021/09/11 04:58:53;;;;;;;17.58;16.08;;;;;;;;;;5114179;27;24981;-65
2021/09/11 05:01:18;;;;;;;17.23;15.93;;;;;;;;;;5109108;28;24941;-64
2021/09/11 05:03:43;;;;;;;15.83;14.63;;;;;;;;;;5108427;28;25023;-64
2021/09/11 05:06:09;;;;;;;17.60;16.30;;;;;;;;;;5107445;28;24430;-65
2021/09/11 05:08:35;;;;;;;16.30;15.10;;;;;;;;;;5108696;27;24416;-64
2021/09/11 05:11:00;;;;;;;16.02;14.82;;;;;;;;;;5108536;28;24416;-64
2021/09/11 05:13:25;;;;;;;18.00;16.70;;;;;;;;;;5106880;28;24453;-64
2021/09/11 05:15:50;;;;;;;16.05;14.85;;;;;;;;;;5107305;28;24951;-64
2021/09/11 05:18:15;;;;;;;18.42;17.13;;;;;;;;;;5106692;27;24405;-65
2021/09/11 05:20:40;;;;;;;17.90;16.50;;;;;;;;;;5108533;28;24474;-65
2021/09/11 05:23:05;;;;;;;16.95;15.65;;;;;;;;;;5108675;28;24811;-65
2021/09/11 05:25:31;;;;;;;16.07;14.97;;;;;;;;;;5108254;28;24424;-65
2021/09/11 05:27:56;;;;;;;16.40;15.20;;;;;;;;;;5111807;27;24433;-65
2021/09/11 05:30:21;;;;;;;17.83;16.53;;;;;;;;;;5107286;27;24978;-64
2021/09/11 05:32:46;;;;;;;15.47;14.27;;;;;;;;;;5107591;28;24433;-65
2021/09/11 05:35:11;;;;;;;15.27;14.18;;;;;;;;;;5108075;28;24501;-65
2021/09/11 05:37:37;;;;;;;15.50;14.40;;;;;;;;;;5107243;28;24434;-65
2021/09/11 05:40:03;;;;;;;16.55;15.35;;;;;;;;;;5096825;28;24467;-64
2021/09/11 05:42:28;;;;;;;15.90;14.70;;;;;;;;;;5107495;28;25038;-65
2021/09/11 05:44:55;;;;;;;14.63;13.53;;;;;;;;;;5107825;28;24417;-65
2021/09/11 05:47:20;;;;;;;13.55;12.63;;;;;;;;;;5107469;28;24422;-66
2021/09/11 05:49:45;;;;;;;12.93;12.02;;;;;;;;;;5117545;27;24424;-66
2021/09/11 05:52:10;;;;;;;12.80;11.80;;;;;;;;;;5104016;28;24435;-66
2021/09/11 05:54:35;;;;;;;14.13;13.13;;;;;;;;;;5106922;28;25279;-66
2021/09/11 05:57:01;;;;;;;14.10;13.10;;;;;;;;;;5107331;28;24417;-66
2021/09/11 05:59:26;;;;;;;11.70;10.90;;;;;;;;;;5105268;28;24471;-65
2021/09/11 06:01:51;;;;;;;11.85;11.05;;;;;;;;;;5100264;28;24452;-66
2021/09/11 06:04:16;;;;;;;16.70;15.40;;;;;;;;;;5105681;28;24843;-66
2021/09/11 06:06:41;;;;;;;14.77;13.67;;;;;;;;;;5103694;28;24433;-66
2021/09/11 06:09:07;;;;;;;11.90;11.10;;;;;;;;;;5104703;28;24414;-65
2021/09/11 06:11:32;;;;;;;13.60;12.60;;;;;;;;;;5106181;28;24422;-66
2021/09/11 06:13:57;;;;;;;14.10;13.10;;;;;;;;;;5106737;27;24986;-66
2021/09/11 06:16:22;;;;;;;14.93;13.82;;;;;;;;;;5117256;27;24807;-66
2021/09/11 06:18:48;;;;;;;12.90;12.00;;;;;;;;;;5098553;28;24516;-66
2021/09/11 06:21:13;;;;;;;11.77;10.98;;;;;;;;;;5101509;28;24433;-66
2021/09/11 06:23:38;;;;;;;11.50;10.70;;;;;;;;;;5107184;28;24457;-66
2021/09/11 06:26:04;;;;;;;13.48;12.50;;;;;;;;;;5107799;28;24981;-66
2021/09/11 06:28:29;;;;;;;13.82;12.82;;;;;;;;;;5107738;28;24446;-65
2021/09/11 06:30:54;;;;;;;12.23;11.43;;;;;;;;;;5107386;28;24893;-63
2021/09/11 06:33:20;;;;;;;13.90;12.80;;;;;;;;;;5107453;28;24420;-66
2021/09/11 06:35:45;;;;;;;15.30;14.10;;;;;;;;;;5107199;28;24427;-65
2021/09/11 06:38:10;;;;;;;12.20;11.40;;;;;;;;;;5107712;28;24414;-65
2021/09/11 06:40:35;;;;;;;13.00;12.00;;;;;;;;;;5107161;28;25046;-65
2021/09/11 06:43:00;;;;;;;13.00;12.10;;;;;;;;;;5098728;28;24432;-65
2021/09/11 06:45:26;;;;;;;12.83;11.93;;;;;;;;;;5108360;28;24413;-66
2021/09/11 06:47:51;;;;;;;11.90;11.10;;;;;;;;;;5106500;28;25088;-68
2021/09/11 06:50:16;;;;;;;12.00;11.20;;;;;;;;;;5106779;28;24429;-67
2021/09/11 06:52:41;;;;;;;12.13;11.33;;;;;;;;;;5107352;28;24458;-65
2021/09/11 06:55:07;;;;;;;12.30;11.30;;;;;;;;;;5107371;28;24389;-64
2021/09/11 06:57:32;;;;;;;12.20;11.40;;;;;;;;;;5107461;28;24507;-66
2021/09/11 06:59:58;;;;;;;13.10;12.17;;;;;;;;;;5107301;28;24440;-64
2021/09/11 07:02:23;;;;;;;10.90;10.20;;;;;;;;;;5115838;28;24500;-65
2021/09/11 07:04:49;;;;;;;10.40;9.70;;;;;;;;;;5113609;28;25301;-65
2021/09/11 07:07:14;;;;;;;11.80;11.00;;;;;;;;;;5107250;28;24429;-64
2021/09/11 07:09:39;;;;;;;12.68;11.77;;;;;;;;;;5106826;28;25088;-63
2021/09/11 07:12:04;;;;;;;13.20;12.20;;;;;;;;;;5107399;28;24732;-65
2021/09/11 07:14:29;;;;;;;11.80;11.00;;;;;;;;;;5107492;28;24389;-64
2021/09/11 07:16:54;;;;;;;11.25;10.45;;;;;;;;;;5106986;28;24413;-64
2021/09/11 07:19:20;;;;;;;11.10;10.30;;;;;;;;;;5106249;28;24457;-63
2021/09/11 07:21:45;;;;;;;11.35;10.55;;;;;;;;;;5106133;28;24508;-63
2021/09/11 07:24:10;;;;;;;13.40;12.50;;;;;;;;;;5115800;28;25290;-62
2021/09/11 07:26:35;;;;;;;12.13;11.30;;;;;;;;;;5118159;28;24425;-63
2021/09/11 07:29:00;;;;;;;11.90;11.10;;;;;;;;;;5103528;28;24408;-63
2021/09/11 07:31:25;;;;;;;13.52;12.52;;;;;;;;;;5104170;28;24449;-63
2021/09/11 07:33:50;;;;;;;12.80;11.80;;;;;;;;;;5103813;28;25087;-62
2021/09/11 07:36:16;;;;;;;11.10;10.40;;;;;;;;;;5102687;28;24424;-63
2021/09/11 07:38:41;;;;;;;13.47;12.57;;;;;;;;;;5103529;28;24462;-63
2021/09/11 07:41:06;;;;;;;11.87;11.07;;;;;;;;;;5102372;28;24426;-62
2021/09/11 07:43:31;;;;;;;10.93;10.13;;;;;;;;;;5103611;28;24474;-63
2021/09/11 07:45:57;;;;;;;12.10;11.23;;;;;;;;;;5097737;28;24952;-63
2021/09/11 07:48:22;;;;;;;10.60;9.90;;;;;;;;;;5100625;27;24524;-63
2021/09/11 07:50:47;;;;;;;11.90;11.10;;;;;;;;;;5117610;27;24470;-62
2021/09/11 07:53:14;;;;;;;13.33;12.33;;;;;;;;;;5107473;27;24470;-62
2021/09/11 07:55:39;;;;;;;13.38;12.38;;;;;;;;;;5107651;28;25139;-63
2021/09/11 07:58:04;;;;;;;13.10;12.10;;;;;;;;;;5108015;27;25033;-62
2021/09/11 08:00:30;;;;;;;11.93;11.07;;;;;;;;;;5110939;27;24428;-62
2021/09/11 08:02:55;;;;;;;13.17;12.27;;;;;;;;;;5107156;28;24552;-62
2021/09/11 08:05:20;;;;;;;12.90;12.00;;;;;;;;;;5106703;27;24431;-62
2021/09/11 08:07:45;;;;;;;13.03;12.03;;;;;;;;;;5106797;28;24422;-62
2021/09/11 08:10:11;;;;;;;11.63;10.80;;;;;;;;;;5105963;28;24417;-62
2021/09/11 08:12:36;;;;;;;10.47;9.77;;;;;;;;;;5108595;28;24481;-61
2021/09/11 08:15:01;;;;;;;10.90;10.20;;;;;;;;;;5109544;28;25008;-62
2021/09/11 08:17:26;;;;;;;11.23;10.43;;;;;;;;;;5109796;28;24471;-62
2021/09/11 08:19:51;;;;;;;10.33;9.63;;;;;;;;;;5108314;28;24605;-61
2021/09/11 08:22:17;;;;;;;11.00;10.20;;;;;;;;;;5108522;27;24409;-62
2021/09/11 08:24:42;;;;;;;10.55;9.85;;;;;;;;;;5109729;28;24381;-62
2021/09/11 08:27:07;;;;;;;12.63;11.73;;;;;;;;;;5109513;28;24482;-62
2021/09/11 08:29:35;;;;;;;11.43;10.63;;;;;;;;;;5109497;28;24394;-61
2021/09/11 08:32:00;;;;;;;12.07;11.18;;;;;;;;;;5107307;27;24536;-61
2021/09/11 08:34:25;;;;;;;11.10;10.30;;;;;;;;;;5107681;28;25012;-62
2021/09/11 08:36:50;;;;;;;13.80;12.90;;;;;;;;;;5109545;28;24437;-62
2021/09/11 08:39:16;;;;;;;11.73;10.82;;;;;;;;;;5109038;28;24436;-61
2021/09/11 08:41:41;;;;;;;12.07;11.17;;;;;;;;;;5108352;28;24826;-61
2021/09/11 08:44:06;;;;;;;11.70;10.90;;;;;;;;;;5109644;28;24426;-61
2021/09/11 08:46:31;;;;;;;10.45;9.75;;;;;;;;;;5109707;28;24425;-61
2021/09/11 08:48:56;;;;;;;11.30;10.45;;;;;;;;;;5108189;28;24405;-63
2021/09/11 08:51:22;;;;;;;9.70;9.10;;;;;;;;;;5108393;27;24545;-62
2021/09/11 08:53:47;;;;;;;10.32;9.70;;;;;;;;;;5109144;28;24973;-62
2021/09/11 08:56:12;;;;;;;10.95;10.25;;;;;;;;;;5109427;28;24413;-62
2021/09/11 08:58:37;;;;;;;10.80;10.10;;;;;;;;;;5107349;27;25048;-63
2021/09/11 09:01:03;;;;;;;9.38;8.77;;;;;;;;;;5113414;27;24471;-62
2021/09/11 09:03:30;;;;;;;10.30;9.60;;;;;;;;;;5123794;27;24441;-62
2021/09/11 09:06:07;;;;;;;10.80;10.10;;;;;;;;;;5108865;27;24487;-62
2021/09/11 09:08:33;;;;;;;12.15;11.25;;;;;;;;;;5111931;27;24414;-61
2021/09/11 09:11:12;;;;;;;9.90;9.20;;;;;;;;;;5108822;28;24397;-63
2021/09/11 09:13:50;;;;;;;10.00;9.30;;;;;;;;;;5115394;27;24410;-62
2021/09/11 09:16:15;;;;;;;10.80;10.10;;;;;;;;;;5125068;27;24947;-62
2021/09/11 09:18:40;;;;;;;9.97;9.37;;;;;;;;;;5108980;27;24454;-62
2021/09/11 09:21:16;;;;;;;10.65;9.77;;;;;;;;;;5108716;28;24417;-62
2021/09/11 09:23:48;;;;;;;11.20;10.40;;;;;;;;;;5120825;27;24409;-62
2021/09/11 09:26:13;;;;;;;10.80;10.00;;;;;;;;;;5119889;27;24809;-62
2021/09/11 09:28:38;;;;;;;10.60;9.90;;;;;;;;;;5116453;27;24990;-62
2021/09/11 09:31:03;;;;;;;10.13;9.43;;;;;;;;;;5115134;27;24462;-62
2021/09/11 09:33:33;;;;;;;9.10;8.50;;;;;;;;;;5114863;27;24440;-62
2021/09/11 09:35:59;;;;;;;9.80;9.10;;;;;;;;;;5108649;27;24409;-62
2021/09/11 09:38:24;;;;;;;10.10;9.40;;;;;;;;;;5120567;27;24440;-61
2021/09/11 09:40:50;;;;;;;8.70;8.10;;;;;;;;;;5118472;27;24963;-62
2021/09/11 09:43:29;;;;;;;10.70;10.00;;;;;;;;;;5111643;27;24494;-62
2021/09/11 09:46:09;;;;;;;10.32;9.63;;;;;;;;;;5088103;28;24412;-61
2021/09/11 09:48:36;;;;;;;10.60;9.90;;;;;;;;;;5119075;27;24423;-62
2021/09/11 09:51:02;;;;;;;10.10;9.40;;;;;;;;;;5105392;27;24525;-62
2021/09/11 09:53:27;;;;;;;9.63;9.02;;;;;;;;;;5105677;28;24429;-62
2021/09/11 09:55:52;;;;;;;8.90;8.30;;;;;;;;;;5105348;27;24390;-61
2021/09/11 09:58:18;;;;;;;11.50;10.70;;;;;;;;;;5096030;28;24410;-62
2021/09/11 10:00:43;;;;;;;8.50;7.90;;;;;;;;;;5107359;28;24950;-61
2021/09/11 10:03:09;;;;;;;9.20;8.60;;;;;;;;;;5108112;27;24768;-61
2021/09/11 10:05:34;;;;;;;9.50;8.90;;;;;;;;;;5108578;27;24768;-61
2021/09/11 10:08:03;;;;;;;9.30;8.70;;;;;;;;;;5107551;27;24865;-61
2021/09/11 10:10:29;;;;;;;9.90;9.20;;;;;;;;;;5088306;28;24433;-62
2021/09/11 10:13:03;;;;;;;9.88;9.20;;;;;;;;;;5112238;27;24828;-61
2021/09/11 10:15:33;;;;;;;10.35;9.65;;;;;;;;;;5111093;27;24809;-61
2021/09/11 10:17:59;;;;;;;9.27;8.68;;;;;;;;;;5106807;27;24421;-61
2021/09/11 10:20:24;;;;;;;10.40;9.70;;;;;;;;;;5106708;28;24410;-61
2021/09/11 10:23:02;;;;;;;9.17;8.57;;;;;;;;;;5106054;28;24470;-61
2021/09/11 10:25:44;;;;;;;10.15;9.35;;;;;;;;;;5107628;28;24474;-61
2021/09/11 10:28:13;;;;;;;9.60;8.98;;;;;;;;;;5107197;28;24433;-61
2021/09/11 10:30:57;;;;;;;11.90;11.10;;;;;;;;;;5106926;28;24397;-61
2021/09/11 10:33:37;;;;;;;10.02;9.32;;;;;;;;;;5107696;27;24410;-61
2021/09/11 10:36:03;;;;;;;9.15;8.50;;;;;;;;;;5106711;28;24413;-61
2021/09/11 10:38:36;;;;;;;10.80;10.10;;;;;;;;;;5107039;28;24410;-61
2021/09/11 10:41:06;;;;;;;10.60;9.90;;;;;;;;;;5106701;28;24847;-61
2021/09/11 10:43:32;;;;;;;10.45;9.75;;;;;;;;;;5106957;28;24463;-61
2021/09/11 10:46:06;;;;;;;8.97;8.37;;;;;;;;;;5106885;28;24454;-62
2021/09/11 10:48:44;;;;;;;8.40;7.80;;;;;;;;;;5107150;28;24453;-64
2021/09/11 10:51:25;;;;;;;8.65;8.05;;;;;;;;;;5106463;28;24520;-64
2021/09/11 10:54:03;;;;;;;8.65;8.07;;;;;;;;;;5092231;28;25027;-64
2021/09/11 10:56:34;;;;;;;9.70;9.10;;;;;;;;;;5107192;28;24509;-63
2021/09/11 10:59:18;;;;;;;8.80;8.30;;;;;;;;;;5106745;28;25034;-63
2021/09/11 11:02:02;;;;;;;9.00;8.40;;;;;;;;;;5106042;28;24538;-63
2021/09/11 11:04:27;;;;;;;9.98;9.18;;;;;;;;;;5106739;28;24417;-63
2021/09/11 11:06:54;;;;;;;8.60;8.07;;;;;;;;;;5106796;28;24534;-63
2021/09/11 11:09:19;;;;;;;9.57;8.98;;;;;;;;;;5105416;28;24417;-62
2021/09/11 11:11:49;;;;;;;8.70;8.20;;;;;;;;;;5106053;28;24487;-63
2021/09/11 11:14:14;;;;;;;9.23;8.60;;;;;;;;;;5106320;28;24772;-62
2021/09/11 11:16:53;;;;;;;9.05;8.45;;;;;;;;;;5105905;28;24948;-61
2021/09/11 11:19:19;;;;;;;10.07;9.38;;;;;;;;;;5106093;28;24407;-62
2021/09/11 11:21:59;;;;;;;10.30;9.60;;;;;;;;;;5107946;28;24463;-62
2021/09/11 11:24:24;;;;;;;10.68;9.98;;;;;;;;;;5110379;28;24416;-61
2021/09/11 11:26:50;;;;;;;10.97;10.17;;;;;;;;;;5109250;28;24444;-62
2021/09/11 11:29:19;;;;;;;10.27;9.57;;;;;;;;;;5108677;28;24982;-62
2021/09/11 11:31:44;;;;;;;10.93;10.23;;;;;;;;;;5111592;27;24412;-62
2021/09/11 11:34:12;;;;;;;11.77;10.97;;;;;;;;;;5110474;28;24772;-62
2021/09/11 11:36:45;;;;;;;9.60;8.90;;;;;;;;;;5110816;28;24413;-62
2021/09/11 11:39:19;;;;;;;9.25;8.65;;;;;;;;;;5109798;28;25040;-62
2021/09/11 11:41:52;;;;;;;12.33;11.43;;;;;;;;;;5110872;28;24493;-61
2021/09/11 11:44:17;;;;;;;12.70;11.70;;;;;;;;;;5110749;28;24955;-60
2021/09/11 11:46:42;;;;;;;11.30;10.40;;;;;;;;;;5109561;28;24469;-60
2021/09/11 11:49:08;;;;;;;9.60;8.80;;;;;;;;;;5111071;27;24439;-60
2021/09/11 11:51:33;;;;;;;9.48;8.68;;;;;;;;;;5110635;28;24494;-61
2021/09/11 11:53:59;;;;;;;8.50;7.90;;;;;;;;;;5110404;28;24911;-61
2021/09/11 11:56:25;;;;;;;9.98;9.07;;;;;;;;;;5107213;28;24986;-59
2021/09/11 11:59:01;;;;;;;8.60;7.90;;;;;;;;;;5108476;28;24482;-62
2021/09/11 12:01:29;;;;;;;7.30;6.80;;;;;;;;;;5128510;27;24775;-62
2021/09/11 12:03:54;;;;;;;7.70;7.20;;;;;;;;;;5109994;28;25000;-63
2021/09/11 12:06:19;;;;;;;7.10;6.60;;;;;;;;;;5109684;28;24425;-63
2021/09/11 12:08:46;;;;;;;6.90;6.50;;;;;;;;;;5110083;28;24409;-62
2021/09/11 12:11:16;;;;;;;6.80;6.40;;;;;;;;;;5110798;27;24486;-63
2021/09/11 12:13:43;;;;;;;7.00;6.50;;;;;;;;;;5109546;28;24989;-63
2021/09/11 12:16:08;;;;;;;6.45;6.05;;;;;;;;;;5110173;28;24517;-62
2021/09/11 12:18:34;;;;;;;6.10;5.70;;;;;;;;;;5107527;28;24505;-62
2021/09/11 12:21:06;;;;;;;6.07;5.68;;;;;;;;;;5111182;27;24824;-62
2021/09/11 12:23:33;;;;;;;6.10;5.70;;;;;;;;;;5109508;28;24424;-62
2021/09/11 12:26:03;;;;;;;6.28;5.88;;;;;;;;;;5105742;28;24449;-62
2021/09/11 12:28:32;;;;;;;7.03;6.53;;;;;;;;;;5102067;28;24410;-62
2021/09/11 12:30:57;;;;;;;6.88;6.38;;;;;;;;;;5109967;27;24509;-62
2021/09/11 12:33:23;;;;;;;6.83;6.33;;;;;;;;;;5111778;27;24836;-62
2021/09/11 12:35:48;;;;;;;7.18;6.68;;;;;;;;;;5128236;27;24405;-62
2021/09/11 12:38:13;;;;;;;6.30;5.90;;;;;;;;;;5129011;27;24500;-62
2021/09/11 12:40:38;;;;;;;7.05;6.55;;;;;;;;;;5130222;27;25366;-62
2021/09/11 12:43:03;;;;;;;9.95;9.25;;;;;;;;;;5124387;27;24410;-62
2021/09/11 12:45:29;;;;;;;10.60;9.90;;;;;;;;;;5111039;27;24452;-62
2021/09/11 12:47:54;;;;;;;9.73;9.03;;;;;;;;;;5129655;27;24988;-63
2021/09/11 12:50:21;;;;;;;10.35;9.55;;;;;;;;;;5112543;27;24524;-62
2021/09/11 12:52:46;;;;;;;9.10;8.40;;;;;;;;;;5118734;27;24429;-62
2021/09/11 12:55:11;;;;;;;9.60;8.90;;;;;;;;;;5112429;27;24445;-62
2021/09/11 12:57:36;;;;;;;9.40;8.80;;;;;;;;;;5108806;27;24421;-61
2021/09/11 13:00:02;;;;;;;8.50;7.90;;;;;;;;;;5109359;28;24409;-63
2021/09/11 13:02:27;;;;;;;9.70;9.00;;;;;;;;;;5114676;27;24537;-62
2021/09/11 13:04:55;;;;;;;9.35;8.65;;;;;;;;;;5129982;27;24385;-62
2021/09/11 13:07:20;;;;;;;8.30;7.70;;;;;;;;;;5129509;27;24516;-62
2021/09/11 13:09:45;;;;;;;8.57;7.97;;;;;;;;;;5129922;27;24505;-62
2021/09/11 13:12:10;;;;;;;7.32;6.82;;;;;;;;;;5127134;27;24480;-62
2021/09/11 13:14:36;;;;;;;8.63;8.02;;;;;;;;;;5108798;28;24509;-62
2021/09/11 13:17:01;;;;;;;8.50;7.90;;;;;;;;;;5109126;28;24402;-63
2021/09/11 13:19:26;;;;;;;7.70;7.20;;;;;;;;;;5109120;28;24912;-62
2021/09/11 13:21:51;;;;;;;7.93;7.33;;;;;;;;;;5108697;28;24443;-62
2021/09/11 13:24:16;;;;;;;6.25;5.75;;;;;;;;;;5109913;27;25028;-62
2021/09/11 13:26:41;;;;;;;6.57;6.07;;;;;;;;;;5108463;28;24425;-62
2021/09/11 13:29:07;;;;;;;5.50;5.10;;;;;;;;;;5108800;28;24378;-62
2021/09/11 13:31:32;;;;;;;5.30;5.00;;;;;;;;;;5109162;28;24424;-62
2021/09/11 13:33:57;;;;;;;5.00;4.70;;;;;;;;;;5109273;27;24513;-62
2021/09/11 13:36:24;;;;;;;5.85;5.38;;;;;;;;;;5108884;28;24942;-62
2021/09/11 13:38:49;;;;;;;6.20;5.80;;;;;;;;;;5108393;28;24950;-62
2021/09/11 13:41:16;;;;;;;7.70;7.10;;;;;;;;;;5108518;28;24401;-62
2021/09/11 13:43:41;;;;;;;6.05;5.65;;;;;;;;;;5108247;27;24504;-61
2021/09/11 13:46:06;;;;;;;7.47;6.97;;;;;;;;;;5107189;28;24563;-62
2021/09/11 13:48:32;;;;;;;7.13;6.53;;;;;;;;;;5108562;28;24967;-62
2021/09/11 13:50:57;;;;;;;6.53;6.03;;;;;;;;;;5108367;28;24535;-61
2021/09/11 13:53:22;;;;;;;6.13;5.73;;;;;;;;;;5108182;28;24520;-62
2021/09/11 13:55:50;;;;;;;7.10;6.60;;;;;;;;;;5107719;28;24989;-61
2021/09/11 13:58:15;;;;;;;6.32;5.93;;;;;;;;;;5096586;28;24418;-62
2021/09/11 14:00:40;;;;;;;6.05;5.65;;;;;;;;;;5107707;28;24665;-61
2021/09/11 14:03:06;;;;;;;5.68;5.28;;;;;;;;;;5101400;27;24494;-62
2021/09/11 14:05:32;;;;;;;5.43;5.00;;;;;;;;;;5108494;28;25040;-62
2021/09/11 14:07:57;;;;;;;4.60;4.30;;;;;;;;;;5108488;28;24433;-62
2021/09/11 14:10:22;;;;;;;5.90;5.40;;;;;;;;;;5104631;28;24417;-62
2021/09/11 14:12:47;;;;;;;5.53;5.13;;;;;;;;;;5104095;27;24406;-62
2021/09/11 14:15:14;;;;;;;6.10;5.60;;;;;;;;;;5115230;27;24493;-61
2021/09/11 14:17:39;;;;;;;5.88;5.47;;;;;;;;;;5106331;28;24961;-61
2021/09/11 14:20:05;;;;;;;4.10;3.90;;;;;;;;;;5107538;28;24512;-61